Time;durP1;ratioP1;P1;durP2;ratioP2;P2;SDS_P1;SDS_P2;PMS_P1;PMS_P2;Temp;Humidity;BMP_temperature;BMP_pressure;BME280_temperature;BME280_humidity;BME280_pressure;Samples;Min_cycle;Max_cycle;Signal;HPM_P1;HPM_P2
2022/07/18 00:00:24;;;;;;;;;;;13.30;91.30;;;;;;5056784;28;19909;-75
2022/07/18 00:02:50;;;;;;;;;;;13.20;92.40;;;;;;5052910;28;19908;-73
2022/07/18 00:05:15;;;;;;;;;;;13.10;92.50;;;;;;5052674;28;19909;-75
2022/07/18 00:07:40;;;;;;;;;;;13.00;93.20;;;;;;5053663;28;19943;-75
2022/07/18 00:10:06;;;;;;;;;;;13.00;93.10;;;;;;5032707;28;19909;-74
2022/07/18 00:12:32;;;;;;;;;;;12.90;93.80;;;;;;5026848;28;19924;-75
2022/07/18 00:14:57;;;;;;;;;;;12.90;93.60;;;;;;5033678;28;19936;-75
2022/07/18 00:17:23;;;;;;;;;;;12.90;93.50;;;;;;5033886;28;19917;-75
2022/07/18 00:19:48;;;;;;;;;;;12.80;94.20;;;;;;5032860;28;20015;-74
2022/07/18 00:22:14;;;;;;;;;;;12.80;93.80;;;;;;5032068;28;19909;-75
2022/07/18 00:24:39;;;;;;;;;;;13.00;93.70;;;;;;5041012;28;19917;-75
2022/07/18 00:27:07;;;;;;;;;;;13.00;93.90;;;;;;5053059;28;19956;-75
2022/07/18 00:29:35;;;;;;;;;;;12.90;94.40;;;;;;5051812;28;20295;-72
2022/07/18 00:32:01;;;;;;;;;;;12.80;95.20;;;;;;5052744;28;19909;-75
2022/07/18 00:34:27;;;;;;;;;;;12.70;95.20;;;;;;5052445;28;19955;-75
2022/07/18 00:36:52;;;;;;;;;;;12.70;94.70;;;;;;5051893;28;19960;-76
2022/07/18 00:39:18;;;;;;;;;;;12.70;94.90;;;;;;5042433;28;19915;-75
2022/07/18 00:41:49;;;;;;;;;;;12.60;95.30;;;;;;5021934;28;19910;-75
2022/07/18 00:44:16;;;;;;;;;;;12.60;95.30;;;;;;5032296;28;20345;-75
2022/07/18 00:46:41;;;;;;;;;;;12.70;95.20;;;;;;5032437;28;20381;-75
2022/07/18 00:49:07;;;;;;;;;;;12.80;94.80;;;;;;5033810;28;19910;-73
2022/07/18 00:51:36;;;;;;;;;;;12.80;95.10;;;;;;5032896;28;19920;-75
2022/07/18 00:54:03;;;;;;;;;;;12.70;95.20;;;;;;5032748;28;19909;-75
2022/07/18 00:56:28;;;;;;;;;;;12.70;95.20;;;;;;5032113;28;19917;-75
2022/07/18 00:58:54;;;;;;;;;;;12.70;94.60;;;;;;5033301;28;20259;-74
2022/07/18 01:04:03;;;;;;;;;;;12.70;95.30;;;;;;5032974;28;19920;-75
2022/07/18 01:06:29;;;;;;;;;;;12.60;96.00;;;;;;5032916;28;19909;-74
2022/07/18 01:08:58;;;;;;;;;;;12.50;95.90;;;;;;5027993;28;19909;-75
2022/07/18 01:11:23;;;;;;;;;;;12.60;95.50;;;;;;5034131;28;19917;-72
2022/07/18 01:13:49;;;;;;;;;;;12.60;95.60;;;;;;5032358;28;19909;-75
2022/07/18 01:16:16;;;;;;;;;;;12.60;95.40;;;;;;5033424;28;20370;-75
2022/07/18 01:18:46;;;;;;;;;;;12.60;95.30;;;;;;5032152;28;19916;-74
2022/07/18 01:21:11;;;;;;;;;;;12.50;95.50;;;;;;5033747;28;20353;-75
2022/07/18 01:23:37;;;;;;;;;;;12.50;95.20;;;;;;5024942;28;19952;-75
2022/07/18 01:26:02;;;;;;;;;;;12.50;95.20;;;;;;5032681;28;19910;-75
2022/07/18 01:28:28;;;;;;;;;;;12.50;95.60;;;;;;5032794;28;19909;-74
2022/07/18 01:30:53;;;;;;;;;;;12.40;95.60;;;;;;5031460;28;20370;-75
2022/07/18 01:33:19;;;;;;;;;;;12.50;95.60;;;;;;5031754;28;19916;-75
2022/07/18 01:35:44;;;;;;;;;;;12.40;95.70;;;;;;5032415;28;19923;-74
2022/07/18 01:38:10;;;;;;;;;;;12.50;95.10;;;;;;5031904;28;19916;-75
2022/07/18 01:40:35;;;;;;;;;;;12.50;95.00;;;;;;5032454;28;20290;-75
2022/07/18 01:43:01;;;;;;;;;;;12.50;95.20;;;;;;5030622;28;19913;-75
2022/07/18 01:45:26;;;;;;;;;;;12.40;95.00;;;;;;5051136;28;19909;-74
2022/07/18 01:47:52;;;;;;;;;;;12.40;95.10;;;;;;5051466;28;19909;-75
2022/07/18 01:50:18;;;;;;;;;;;12.40;95.20;;;;;;5033143;28;20282;-75
2022/07/18 01:52:43;;;;;;;;;;;12.40;95.40;;;;;;5030815;28;19909;-75
2022/07/18 01:55:09;;;;;;;;;;;12.20;95.80;;;;;;5031945;28;19913;-75
2022/07/18 01:57:35;;;;;;;;;;;12.10;96.60;;;;;;5031947;28;20326;-72
2022/07/18 02:00:01;;;;;;;;;;;12.10;96.60;;;;;;5032207;28;19910;-74
2022/07/18 02:02:26;;;;;;;;;;;12.10;96.50;;;;;;5030666;28;19909;-75
2022/07/18 02:05:01;;;;;;;;;;;12.00;96.60;;;;;;5037395;28;19913;-75
2022/07/18 02:07:28;;;;;;;;;;;11.90;96.90;;;;;;5051285;28;19909;-74
2022/07/18 02:09:54;;;;;;;;;;;11.90;97.20;;;;;;5051432;28;19909;-75
2022/07/18 02:12:19;;;;;;;;;;;11.90;97.10;;;;;;5049129;28;20370;-74
2022/07/18 02:14:45;;;;;;;;;;;11.90;96.70;;;;;;5032615;28;20394;-75
2022/07/18 02:17:10;;;;;;;;;;;12.00;96.50;;;;;;5031701;28;20488;-75
2022/07/18 02:19:36;;;;;;;;;;;11.80;98.80;;;;;;5034608;28;19909;-74
2022/07/18 02:22:01;;;;;;;;;;;11.70;97.60;;;;;;5027657;28;19909;-75
2022/07/18 02:24:27;;;;;;;;;;;11.70;97.80;;;;;;5028973;28;19909;-75
2022/07/18 02:26:52;;;;;;;;;;;11.70;98.30;;;;;;5030151;28;19964;-75
2022/07/18 02:29:18;;;;;;;;;;;11.60;97.70;;;;;;5030915;28;20000;-75
2022/07/18 02:31:43;;;;;;;;;;;11.60;98.30;;;;;;5031222;28;19916;-75
2022/07/18 02:34:11;;;;;;;;;;;11.50;99.10;;;;;;5031058;28;19913;-75
2022/07/18 02:36:37;;;;;;;;;;;11.50;98.80;;;;;;5031519;28;19917;-75
2022/07/18 02:39:03;;;;;;;;;;;11.50;98.90;;;;;;5031614;28;19913;-75
2022/07/18 02:41:29;;;;;;;;;;;11.40;99.10;;;;;;5029541;28;20370;-75
2022/07/18 02:43:54;;;;;;;;;;;11.40;99.40;;;;;;5030975;28;19996;-75
2022/07/18 02:46:20;;;;;;;;;;;11.40;99.50;;;;;;5031441;28;20004;-73
2022/07/18 02:48:45;;;;;;;;;;;11.30;99.90;;;;;;5031356;28;20329;-75
2022/07/18 02:51:11;;;;;;;;;;;11.30;99.90;;;;;;5028898;28;19909;-75
2022/07/18 02:53:36;;;;;;;;;;;11.40;99.90;;;;;;5023426;28;19926;-75
2022/07/18 02:56:02;;;;;;;;;;;11.30;99.90;;;;;;5050438;28;20374;-75
2022/07/18 02:58:27;;;;;;;;;;;11.20;99.90;;;;;;5050020;28;19913;-74
2022/07/18 03:00:53;;;;;;;;;;;11.10;99.90;;;;;;5032168;28;20286;-74
2022/07/18 03:03:18;;;;;;;;;;;11.10;99.90;;;;;;5053414;28;19995;-74
2022/07/18 03:05:44;;;;;;;;;;;11.10;99.90;;;;;;5053241;28;19909;-74
2022/07/18 03:08:09;;;;;;;;;;;11.00;99.90;;;;;;5028725;28;19909;-75
2022/07/18 03:10:35;;;;;;;;;;;10.90;99.90;;;;;;5034960;28;20282;-74
2022/07/18 03:13:00;;;;;;;;;;;11.00;99.90;;;;;;5034636;28;19948;-73
2022/07/18 03:15:26;;;;;;;;;;;10.90;99.90;;;;;;5034447;28;19936;-74
2022/07/18 03:17:51;;;;;;;;;;;10.90;99.90;;;;;;5035071;28;19995;-74
2022/07/18 03:20:16;;;;;;;;;;;11.00;99.90;;;;;;5035022;28;20277;-74
2022/07/18 03:22:42;;;;;;;;;;;11.00;99.90;;;;;;5039149;28;19909;-75
2022/07/18 03:25:08;;;;;;;;;;;10.90;99.90;;;;;;5034501;28;19913;-75
2022/07/18 03:27:33;;;;;;;;;;;10.90;99.90;;;;;;5033273;28;19917;-74
2022/07/18 03:29:59;;;;;;;;;;;10.80;99.90;;;;;;5034129;28;19952;-73
2022/07/18 03:32:24;;;;;;;;;;;10.80;99.90;;;;;;5034352;28;19927;-75
2022/07/18 03:34:50;;;;;;;;;;;10.80;99.90;;;;;;5032889;28;20305;-74
2022/07/18 03:37:15;;;;;;;;;;;10.80;99.90;;;;;;5033401;28;19916;-74
2022/07/18 03:39:40;;;;;;;;;;;10.80;99.90;;;;;;5034680;28;19963;-75
2022/07/18 03:42:06;;;;;;;;;;;10.70;99.90;;;;;;5033905;28;19909;-75
2022/07/18 03:44:32;;;;;;;;;;;10.70;99.90;;;;;;5034106;28;20392;-75
2022/07/18 03:46:57;;;;;;;;;;;10.70;99.90;;;;;;5033092;28;20299;-73
2022/07/18 03:49:22;;;;;;;;;;;10.70;99.90;;;;;;5034669;28;19945;-75
2022/07/18 03:51:48;;;;;;;;;;;10.70;99.90;;;;;;5029133;28;20414;-75
2022/07/18 03:54:13;;;;;;;;;;;10.70;99.90;;;;;;5039816;28;19915;-74
2022/07/18 03:56:39;;;;;;;;;;;10.80;99.90;;;;;;5053200;28;19919;-74
2022/07/18 03:59:04;;;;;;;;;;;10.80;99.90;;;;;;5053534;28;20385;-74
2022/07/18 04:01:30;;;;;;;;;;;10.90;99.90;;;;;;5052948;28;20297;-74
2022/07/18 04:03:55;;;;;;;;;;;10.90;99.90;;;;;;5042486;28;20365;-73
2022/07/18 04:06:21;;;;;;;;;;;10.90;99.90;;;;;;5053510;28;19909;-74
2022/07/18 04:08:46;;;;;;;;;;;10.90;99.90;;;;;;5053521;28;20015;-74
2022/07/18 04:11:12;;;;;;;;;;;11.00;99.90;;;;;;5026209;28;19971;-74
2022/07/18 04:13:37;;;;;;;;;;;11.10;99.90;;;;;;5033215;28;20431;-74
2022/07/18 04:16:03;;;;;;;;;;;11.10;99.90;;;;;;5034030;28;19913;-74
2022/07/18 04:18:29;;;;;;;;;;;11.20;99.90;;;;;;5034037;28;19916;-75
2022/07/18 04:20:54;;;;;;;;;;;11.30;99.90;;;;;;5039351;28;19909;-75
2022/07/18 04:23:20;;;;;;;;;;;11.30;99.90;;;;;;5025548;28;19961;-74
2022/07/18 04:25:45;;;;;;;;;;;11.30;99.90;;;;;;5031709;28;20053;-75
2022/07/18 04:28:11;;;;;;;;;;;11.40;99.90;;;;;;5033645;28;19970;-75
2022/07/18 04:30:37;;;;;;;;;;;11.70;99.90;;;;;;5033765;28;20488;-75
2022/07/18 04:33:04;;;;;;;;;;;11.80;99.90;;;;;;5033510;28;19995;-74
2022/07/18 04:35:30;;;;;;;;;;;11.80;99.90;;;;;;5033706;28;20290;-74
2022/07/18 04:37:55;;;;;;;;;;;11.90;99.90;;;;;;5032412;28;19909;-75
2022/07/18 04:40:21;;;;;;;;;;;11.90;99.90;;;;;;5033603;28;19909;-75
2022/07/18 04:42:47;;;;;;;;;;;11.90;99.90;;;;;;5032868;28;20286;-74
2022/07/18 04:45:13;;;;;;;;;;;12.00;99.90;;;;;;5031786;28;19909;-75
2022/07/18 04:47:38;;;;;;;;;;;12.10;99.90;;;;;;5033558;28;20121;-75
2022/07/18 04:50:04;;;;;;;;;;;12.20;99.90;;;;;;5033558;28;19960;-75
2022/07/18 04:52:41;;;;;;;;;;;12.30;99.90;;;;;;5036707;28;19966;-75
2022/07/18 04:55:08;;;;;;;;;;;12.40;99.90;;;;;;5032781;28;19910;-74
2022/07/18 04:57:34;;;;;;;;;;;12.30;99.90;;;;;;5032925;28;20004;-74
2022/07/18 05:00:00;;;;;;;;;;;12.40;99.90;;;;;;5031955;28;19959;-74
2022/07/18 05:02:25;;;;;;;;;;;12.50;99.90;;;;;;5036772;28;20377;-75
2022/07/18 05:04:51;;;;;;;;;;;12.60;99.90;;;;;;5050619;28;19915;-73
2022/07/18 05:07:16;;;;;;;;;;;12.70;99.90;;;;;;5052190;28;19908;-75
2022/07/18 05:09:42;;;;;;;;;;;12.80;99.90;;;;;;5052169;28;19920;-75
2022/07/18 05:12:07;;;;;;;;;;;13.00;99.90;;;;;;5051420;28;19916;-74
2022/07/18 05:14:33;;;;;;;;;;;13.10;99.90;;;;;;5050262;28;19960;-75
2022/07/18 05:16:58;;;;;;;;;;;13.10;99.90;;;;;;5052234;28;20160;-75
2022/07/18 05:19:24;;;;;;;;;;;13.10;99.90;;;;;;5052174;28;20290;-75
2022/07/18 05:21:49;;;;;;;;;;;13.30;99.90;;;;;;5034699;28;19917;-74
2022/07/18 05:24:15;;;;;;;;;;;13.40;99.90;;;;;;5035974;28;19913;-76
2022/07/18 05:26:40;;;;;;;;;;;13.40;99.90;;;;;;5050502;28;19916;-75
2022/07/18 05:29:06;;;;;;;;;;;13.40;99.90;;;;;;5050917;28;19962;-75
2022/07/18 05:31:31;;;;;;;;;;;13.50;99.90;;;;;;5051340;28;19909;-75
2022/07/18 05:33:57;;;;;;;;;;;13.70;99.90;;;;;;5051195;28;19909;-75
2022/07/18 05:36:22;;;;;;;;;;;13.80;99.90;;;;;;5051882;28;19912;-75
2022/07/18 05:38:48;;;;;;;;;;;14.00;99.90;;;;;;5045652;28;20325;-75
2022/07/18 05:41:14;;;;;;;;;;;14.30;99.90;;;;;;5050266;28;19909;-75
2022/07/18 05:43:39;;;;;;;;;;;14.50;99.90;;;;;;5049955;28;20370;-76
2022/07/18 05:46:05;;;;;;;;;;;14.90;99.90;;;;;;5052067;28;20370;-75
2022/07/18 05:48:31;;;;;;;;;;;15.00;99.90;;;;;;5052299;28;20358;-75
2022/07/18 05:50:56;;;;;;;;;;;16.20;99.90;;;;;;5046310;28;20008;-75
2022/07/18 05:53:22;;;;;;;;;;;17.80;99.00;;;;;;5028555;28;20275;-76
2022/07/18 05:55:47;;;;;;;;;;;18.50;94.60;;;;;;5048431;28;19920;-75
2022/07/18 05:58:12;;;;;;;;;;;17.50;96.40;;;;;;5050904;28;20396;-75
2022/07/18 06:00:38;;;;;;;;;;;16.50;97.20;;;;;;5051408;28;20003;-75
2022/07/18 06:03:04;;;;;;;;;;;16.60;97.20;;;;;;5051048;28;20058;-75
2022/07/18 06:05:29;;;;;;;;;;;16.60;96.20;;;;;;5037241;28;20278;-75
2022/07/18 06:07:55;;;;;;;;;;;18.30;93.30;;;;;;5051221;28;19915;-75
2022/07/18 06:10:22;;;;;;;;;;;17.90;93.50;;;;;;5033455;28;19925;-76
2022/07/18 06:12:47;;;;;;;;;;;17.40;94.30;;;;;;5018488;28;19913;-76
2022/07/18 06:15:14;;;;;;;;;;;16.80;94.30;;;;;;5016543;28;19959;-74
2022/07/18 06:17:39;;;;;;;;;;;16.80;95.10;;;;;;5015554;28;19966;-75
2022/07/18 06:20:06;;;;;;;;;;;16.90;95.40;;;;;;5017531;28;19991;-74
2022/07/18 06:22:31;;;;;;;;;;;17.10;95.20;;;;;;5021910;28;19909;-75
2022/07/18 06:24:57;;;;;;;;;;;18.40;93.80;;;;;;5033484;28;19956;-76
2022/07/18 06:27:22;;;;;;;;;;;19.30;92.30;;;;;;5020316;28;20145;-76
2022/07/18 06:29:47;;;;;;;;;;;20.40;90.60;;;;;;5031657;28;20378;-76
2022/07/18 06:32:13;;;;;;;;;;;21.40;84.60;;;;;;5034809;28;19916;-75
2022/07/18 06:34:38;;;;;;;;;;;21.20;83.60;;;;;;5040978;28;20300;-75
2022/07/18 06:37:04;;;;;;;;;;;21.20;84.60;;;;;;5050058;28;19919;-75
2022/07/18 06:39:30;;;;;;;;;;;20.80;84.20;;;;;;5036065;28;19909;-75
2022/07/18 06:41:55;;;;;;;;;;;19.90;86.60;;;;;;5034446;28;20394;-75
2022/07/18 06:44:21;;;;;;;;;;;19.50;85.20;;;;;;5037671;28;19999;-75
2022/07/18 06:46:46;;;;;;;;;;;19.40;89.30;;;;;;5051682;28;19999;-75
2022/07/18 06:49:12;;;;;;;;;;;19.50;84.00;;;;;;5050316;28;19915;-75
2022/07/18 06:51:37;;;;;;;;;;;19.70;86.70;;;;;;5038396;28;20015;-74
2022/07/18 06:54:03;;;;;;;;;;;20.60;86.70;;;;;;5028985;28;20036;-75
2022/07/18 06:56:28;;;;;;;;;;;21.50;78.90;;;;;;5031025;28;19921;-75
2022/07/18 06:58:54;;;;;;;;;;;21.50;80.00;;;;;;5030960;28;19920;-75
2022/07/18 07:01:20;;;;;;;;;;;22.10;76.20;;;;;;5029654;28;19917;-76
2022/07/18 07:03:46;;;;;;;;;;;22.30;76.30;;;;;;5030768;28;20084;-76
2022/07/18 07:06:12;;;;;;;;;;;23.80;72.20;;;;;;5031055;28;19917;-76
2022/07/18 07:08:37;;;;;;;;;;;25.00;73.10;;;;;;5031943;28;19909;-76
2022/07/18 07:11:03;;;;;;;;;;;25.50;71.60;;;;;;5024271;28;19917;-76
2022/07/18 07:13:28;;;;;;;;;;;25.80;68.70;;;;;;5029630;28;19924;-76
2022/07/18 07:15:54;;;;;;;;;;;25.70;65.20;;;;;;5030953;28;19913;-76
2022/07/18 07:18:20;;;;;;;;;;;25.40;66.80;;;;;;5030914;28;20285;-76
2022/07/18 07:20:45;;;;;;;;;;;25.70;65.70;;;;;;5031134;28;19935;-76
2022/07/18 07:23:11;;;;;;;;;;;26.10;66.50;;;;;;5034276;28;19958;-76
2022/07/18 07:25:37;;;;;;;;;;;26.50;66.30;;;;;;5027640;28;20370;-75
2022/07/18 07:28:03;;;;;;;;;;;26.90;66.20;;;;;;5029246;28;20354;-75
2022/07/18 07:30:29;;;;;;;;;;;26.90;63.60;;;;;;5030919;28;19913;-76
2022/07/18 07:32:54;;;;;;;;;;;27.10;63.00;;;;;;5030725;28;20098;-75
2022/07/18 07:35:20;;;;;;;;;;;27.40;60.90;;;;;;5030538;28;20297;-77
2022/07/18 07:37:56;;;;;;;;;;;27.90;60.30;;;;;;5031011;28;20298;-77
2022/07/18 07:40:24;;;;;;;;;;;28.30;62.30;;;;;;5034354;28;19913;-76
2022/07/18 07:42:50;;;;;;;;;;;28.30;57.40;;;;;;5028997;28;19917;-76
2022/07/18 07:45:16;;;;;;;;;;;28.40;57.50;;;;;;5031617;28;19909;-76
2022/07/18 07:47:41;;;;;;;;;;;28.60;56.00;;;;;;5034434;28;19932;-76
2022/07/18 07:50:08;;;;;;;;;;;28.40;55.70;;;;;;5049565;28;19913;-75
2022/07/18 07:52:34;;;;;;;;;;;28.50;55.50;;;;;;5031658;28;20000;-76
2022/07/18 07:54:59;;;;;;;;;;;28.70;57.20;;;;;;5046526;28;20009;-75
2022/07/18 07:57:25;;;;;;;;;;;29.20;55.60;;;;;;5052869;28;19913;-76
2022/07/18 07:59:51;;;;;;;;;;;28.60;54.40;;;;;;5053697;28;20095;-77
2022/07/18 08:02:18;;;;;;;;;;;28.80;52.00;;;;;;5035323;28;20341;-76
2022/07/18 08:04:43;;;;;;;;;;;29.20;52.50;;;;;;5033539;28;19913;-75
2022/07/18 08:07:09;;;;;;;;;;;29.00;50.20;;;;;;5033962;28;19921;-76
2022/07/18 08:09:34;;;;;;;;;;;28.90;51.90;;;;;;5029490;28;19917;-77
2022/07/18 08:12:00;;;;;;;;;;;29.60;49.30;;;;;;5027507;28;19926;-75
2022/07/18 08:14:25;;;;;;;;;;;29.70;55.40;;;;;;5027028;28;19944;-74
2022/07/18 08:16:51;;;;;;;;;;;30.50;50.50;;;;;;5034177;28;19982;-77
2022/07/18 08:19:16;;;;;;;;;;;31.00;50.00;;;;;;5034305;28;19999;-77
2022/07/18 08:21:42;;;;;;;;;;;30.90;48.40;;;;;;5032022;28;19909;-77
2022/07/18 08:24:07;;;;;;;;;;;30.90;49.40;;;;;;5035019;28;20059;-77
2022/07/18 08:26:38;;;;;;;;;;;30.00;49.70;;;;;;5052724;28;19913;-77
2022/07/18 08:29:04;;;;;;;;;;;30.50;50.30;;;;;;5051296;28;19913;-77
2022/07/18 08:31:30;;;;;;;;;;;31.20;50.30;;;;;;5043485;28;19910;-77
2022/07/18 08:33:56;;;;;;;;;;;32.10;48.80;;;;;;5028924;28;20397;-77
2022/07/18 08:36:21;;;;;;;;;;;32.00;47.40;;;;;;5033466;28;19917;-76
2022/07/18 08:38:47;;;;;;;;;;;31.40;46.50;;;;;;5028275;28;19913;-77
2022/07/18 08:41:13;;;;;;;;;;;32.00;48.40;;;;;;5032838;28;19909;-74
2022/07/18 08:43:39;;;;;;;;;;;31.90;45.50;;;;;;5032266;28;19924;-77
2022/07/18 08:46:05;;;;;;;;;;;32.00;51.20;;;;;;5033284;28;19909;-76
2022/07/18 08:48:31;;;;;;;;;;;31.70;47.40;;;;;;5033217;28;19909;-77
2022/07/18 08:50:58;;;;;;;;;;;32.60;51.30;;;;;;5033405;28;19955;-77
2022/07/18 08:53:24;;;;;;;;;;;33.00;46.20;;;;;;5036871;28;19909;-77
2022/07/18 08:55:49;;;;;;;;;;;32.50;45.10;;;;;;5033022;28;20019;-77
2022/07/18 08:58:17;;;;;;;;;;;32.30;44.00;;;;;;5031883;28;19913;-76
2022/07/18 09:00:43;;;;;;;;;;;32.80;44.60;;;;;;5031628;28;20430;-74
2022/07/18 09:03:10;;;;;;;;;;;32.90;43.60;;;;;;5030502;28;19913;-76
2022/07/18 09:05:35;;;;;;;;;;;32.40;40.20;;;;;;5032394;28;20043;-76
2022/07/18 09:08:11;;;;;;;;;;;33.10;47.30;;;;;;5032707;28;20433;-76
2022/07/18 09:10:56;;;;;;;;;;;33.80;42.80;;;;;;5033510;28;19966;-75
2022/07/18 09:13:24;;;;;;;;;;;33.10;45.20;;;;;;5031711;28;19935;-76
2022/07/18 09:15:58;;;;;;;;;;;33.70;41.50;;;;;;5030249;28;19913;-76
2022/07/18 09:18:27;;;;;;;;;;;33.50;44.20;;;;;;5050035;28;19978;-76
2022/07/18 09:21:01;;;;;;;;;;;34.50;43.90;;;;;;5048523;28;19909;-79
2022/07/18 09:23:31;;;;;;;;;;;34.50;43.10;;;;;;5027218;28;19910;-76
2022/07/18 09:25:56;;;;;;;;;;;33.80;42.00;;;;;;5031998;28;20384;-76
2022/07/18 09:28:22;;;;;;;;;;;32.60;43.20;;;;;;5031846;28;19999;-75
2022/07/18 09:30:47;;;;;;;;;;;32.90;43.70;;;;;;5032234;28;19913;-76
2022/07/18 09:33:15;;;;;;;;;;;33.30;44.50;;;;;;5031309;28;19984;-75
2022/07/18 09:35:47;;;;;;;;;;;32.50;45.20;;;;;;5032131;28;19920;-75
2022/07/18 09:38:28;;;;;;;;;;;34.00;45.10;;;;;;5032840;28;19909;-74
2022/07/18 09:40:59;;;;;;;;;;;34.10;40.60;;;;;;5029071;28;19909;-78
2022/07/18 09:43:26;;;;;;;;;;;34.40;43.50;;;;;;5028394;28;19920;-76
2022/07/18 09:45:53;;;;;;;;;;;34.50;44.80;;;;;;5032176;28;19916;-76
2022/07/18 09:48:26;;;;;;;;;;;34.30;44.40;;;;;;5032094;28;20022;-76
2022/07/18 09:50:51;;;;;;;;;;;34.90;43.00;;;;;;5037225;28;19915;-76
2022/07/18 09:53:26;;;;;;;;;;;34.40;38.40;;;;;;5030075;28;20337;-76
2022/07/18 09:55:53;;;;;;;;;;;34.00;42.30;;;;;;5050255;28;19912;-76
2022/07/18 09:58:20;;;;;;;;;;;33.00;40.10;;;;;;5050760;28;19912;-77
2022/07/18 10:00:47;;;;;;;;;;;34.30;42.50;;;;;;5039165;28;19913;-76
2022/07/18 10:03:12;;;;;;;;;;;34.50;44.90;;;;;;5026697;28;19963;-77
2022/07/18 10:05:39;;;;;;;;;;;34.30;39.10;;;;;;5049909;28;19936;-77
2022/07/18 10:08:06;;;;;;;;;;;34.60;44.60;;;;;;5050046;28;19913;-77
2022/07/18 10:10:32;;;;;;;;;;;34.00;38.20;;;;;;5038360;28;20355;-76
2022/07/18 10:12:59;;;;;;;;;;;34.30;40.20;;;;;;5031262;28;19909;-76
2022/07/18 10:15:29;;;;;;;;;;;33.80;43.20;;;;;;5016906;28;19930;-76
2022/07/18 10:17:55;;;;;;;;;;;34.10;40.90;;;;;;5024357;28;19913;-76
2022/07/18 10:20:25;;;;;;;;;;;33.60;39.80;;;;;;5030028;28;19963;-76
2022/07/18 10:22:52;;;;;;;;;;;33.70;46.10;;;;;;5030398;28;19909;-76
2022/07/18 10:25:20;;;;;;;;;;;32.80;41.70;;;;;;5030689;28;19909;-76
2022/07/18 10:27:52;;;;;;;;;;;33.90;43.70;;;;;;5030776;28;19987;-76
2022/07/18 10:30:28;;;;;;;;;;;34.90;44.40;;;;;;5031193;28;19920;-77
2022/07/18 10:32:53;;;;;;;;;;;34.60;43.40;;;;;;5031127;28;19917;-76
2022/07/18 10:35:39;;;;;;;;;;;34.60;41.10;;;;;;5030676;28;19917;-77
2022/07/18 10:38:21;;;;;;;;;;;34.50;39.80;;;;;;5030094;28;19970;-76
2022/07/18 10:41:06;;;;;;;;;;;33.80;39.30;;;;;;5035731;28;19964;-76
2022/07/18 10:43:33;;;;;;;;;;;34.00;46.60;;;;;;5027530;28;19909;-76
2022/07/18 10:45:59;;;;;;;;;;;34.80;42.60;;;;;;5029442;28;19912;-76
2022/07/18 10:48:37;;;;;;;;;;;34.70;39.80;;;;;;5031171;28;19960;-76
2022/07/18 10:51:06;;;;;;;;;;;34.90;43.10;;;;;;5030907;28;19909;-76
2022/07/18 10:53:50;;;;;;;;;;;34.70;41.60;;;;;;5031888;28;20424;-76
2022/07/18 10:56:15;;;;;;;;;;;34.60;41.70;;;;;;5030931;28;20412;-76
2022/07/18 10:58:41;;;;;;;;;;;34.10;44.30;;;;;;5030480;28;20012;-76
2022/07/18 11:01:09;;;;;;;;;;;34.00;38.40;;;;;;5031053;28;19909;-76
2022/07/18 11:03:35;;;;;;;;;;;34.60;40.00;;;;;;5029818;28;19913;-76
2022/07/18 11:06:00;;;;;;;;;;;35.30;41.80;;;;;;5030495;28;19916;-76
2022/07/18 11:08:26;;;;;;;;;;;34.30;42.00;;;;;;5030454;28;19909;-76
2022/07/18 11:10:57;;;;;;;;;;;34.50;42.60;;;;;;5026605;28;19917;-77
2022/07/18 11:13:29;;;;;;;;;;;34.30;37.40;;;;;;5036486;28;19909;-76
2022/07/18 11:16:12;;;;;;;;;;;33.80;40.10;;;;;;5048414;28;19909;-76
2022/07/18 11:18:42;;;;;;;;;;;34.30;40.20;;;;;;5049967;28;19995;-76
2022/07/18 11:21:25;;;;;;;;;;;34.70;38.20;;;;;;5044410;28;19917;-76
2022/07/18 11:23:52;;;;;;;;;;;34.00;38.00;;;;;;5020862;28;20188;-76
2022/07/18 11:26:22;;;;;;;;;;;33.10;36.60;;;;;;5034538;28;19959;-76
2022/07/18 11:28:51;;;;;;;;;;;33.40;41.10;;;;;;5034662;28;19909;-76
2022/07/18 11:31:16;;;;;;;;;;;34.50;37.80;;;;;;5033972;28;19913;-76
2022/07/18 11:33:46;;;;;;;;;;;34.20;35.00;;;;;;5034305;28;19971;-76
2022/07/18 11:36:14;;;;;;;;;;;33.80;36.30;;;;;;5034441;28;19917;-76
2022/07/18 11:38:46;;;;;;;;;;;33.80;38.00;;;;;;5033321;28;19916;-75
2022/07/18 11:41:12;;;;;;;;;;;33.30;35.70;;;;;;5028059;28;19909;-75
2022/07/18 11:43:37;;;;;;;;;;;34.30;39.40;;;;;;5030651;28;20388;-76
2022/07/18 11:46:03;;;;;;;;;;;33.10;35.00;;;;;;5034118;28;19909;-76
2022/07/18 11:48:29;;;;;;;;;;;34.20;44.60;;;;;;5034318;28;19913;-76
2022/07/18 11:50:54;;;;;;;;;;;34.00;34.80;;;;;;5034254;28;20370;-77
2022/07/18 11:53:20;;;;;;;;;;;32.50;36.00;;;;;;5034074;28;19996;-77
2022/07/18 11:55:45;;;;;;;;;;;34.20;39.30;;;;;;5053117;28;20002;-77
2022/07/18 11:58:12;;;;;;;;;;;34.00;37.30;;;;;;5051172;28;19908;-77
2022/07/18 12:00:38;;;;;;;;;;;33.30;36.40;;;;;;5031184;28;19916;-76
2022/07/18 12:03:14;;;;;;;;;;;32.80;39.90;;;;;;5039603;28;19909;-76
2022/07/18 12:05:41;;;;;;;;;;;33.20;37.00;;;;;;5030150;28;19920;-77
2022/07/18 12:08:25;;;;;;;;;;;33.80;40.90;;;;;;5033732;28;19909;-75
2022/07/18 12:11:07;;;;;;;;;;;34.80;40.10;;;;;;5029834;28;19916;-76
2022/07/18 12:13:39;;;;;;;;;;;35.30;34.80;;;;;;5027090;28;20335;-76
2022/07/18 12:16:05;;;;;;;;;;;34.80;36.40;;;;;;5054174;28;20366;-74
2022/07/18 12:18:30;;;;;;;;;;;34.20;36.30;;;;;;5065354;28;19916;-75
2022/07/18 12:21:08;;;;;;;;;;;34.50;38.90;;;;;;5043138;28;19909;-75
2022/07/18 12:23:34;;;;;;;;;;;34.50;41.20;;;;;;5025671;28;19909;-76
2022/07/18 12:26:01;;;;;;;;;;;35.10;35.90;;;;;;5033229;28;19913;-75
2022/07/18 12:28:27;;;;;;;;;;;34.10;36.60;;;;;;5021240;28;20008;-75
2022/07/18 12:30:53;;;;;;;;;;;34.50;37.30;;;;;;5033160;28;19998;-76
2022/07/18 12:33:18;;;;;;;;;;;34.70;37.10;;;;;;5031874;28;19909;-76
2022/07/18 12:35:44;;;;;;;;;;;36.00;37.40;;;;;;5033249;28;19909;-77
2022/07/18 12:38:14;;;;;;;;;;;37.30;34.70;;;;;;5033033;28;20012;-76
2022/07/18 12:40:53;;;;;;;;;;;38.60;36.10;;;;;;5029467;28;20371;-76
2022/07/18 12:43:38;;;;;;;;;;;38.50;31.50;;;;;;5032061;28;19920;-76
2022/07/18 12:46:08;;;;;;;;;;;38.80;30.30;;;;;;5033357;28;19909;-76
2022/07/18 12:48:34;;;;;;;;;;;39.50;32.30;;;;;;5033084;28;19941;-77
2022/07/18 12:51:02;;;;;;;;;;;40.70;32.40;;;;;;5033116;28;20369;-77
2022/07/18 12:53:28;;;;;;;;;;;41.20;29.50;;;;;;5037819;28;19909;-76
2022/07/18 12:55:54;;;;;;;;;;;41.30;29.70;;;;;;5032803;28;20367;-76
2022/07/18 12:58:20;;;;;;;;;;;41.20;32.40;;;;;;5032674;28;20003;-76
2022/07/18 13:00:46;;;;;;;;;;;41.30;28.30;;;;;;5033314;28;20264;-75
2022/07/18 13:03:11;;;;;;;;;;;40.10;29.50;;;;;;5031711;28;19916;-75
2022/07/18 13:05:37;;;;;;;;;;;39.20;29.40;;;;;;5033048;28;19910;-76
2022/07/18 13:08:02;;;;;;;;;;;40.30;30.00;;;;;;5032851;28;19909;-76
2022/07/18 13:10:28;;;;;;;;;;;40.50;28.80;;;;;;5031583;28;19921;-76
2022/07/18 13:12:54;;;;;;;;;;;40.30;30.10;;;;;;5031334;28;20030;-76
2022/07/18 13:15:20;;;;;;;;;;;40.80;31.70;;;;;;5051406;28;20370;-76
2022/07/18 13:17:48;;;;;;;;;;;40.70;28.40;;;;;;5049762;28;19919;-76
2022/07/18 13:20:14;;;;;;;;;;;41.10;29.90;;;;;;5042620;28;19909;-76
2022/07/18 13:22:40;;;;;;;;;;;40.50;29.60;;;;;;5027200;28;19917;-76
2022/07/18 13:25:06;;;;;;;;;;;41.00;30.40;;;;;;5032355;28;19912;-76
2022/07/18 13:27:32;;;;;;;;;;;41.20;30.40;;;;;;5032073;28;20385;-76
2022/07/18 13:29:57;;;;;;;;;;;41.50;27.90;;;;;;5032492;28;19913;-76
2022/07/18 13:32:23;;;;;;;;;;;41.10;30.40;;;;;;5049086;28;19913;-77
2022/07/18 13:34:48;;;;;;;;;;;39.70;29.20;;;;;;5050534;28;19992;-77
2022/07/18 13:37:14;;;;;;;;;;;39.90;28.30;;;;;;5051178;28;20324;-77
2022/07/18 13:39:39;;;;;;;;;;;40.20;28.60;;;;;;5037224;28;19996;-77
2022/07/18 13:42:05;;;;;;;;;;;40.20;28.50;;;;;;5032924;28;19951;-77
2022/07/18 13:44:31;;;;;;;;;;;40.00;33.60;;;;;;5031122;28;20378;-77
2022/07/18 13:46:56;;;;;;;;;;;40.10;30.00;;;;;;5031823;28;20344;-77
2022/07/18 13:49:22;;;;;;;;;;;40.60;30.10;;;;;;5032000;28;19909;-77
2022/07/18 13:51:47;;;;;;;;;;;41.20;28.90;;;;;;5023176;28;20298;-77
2022/07/18 13:54:16;;;;;;;;;;;40.80;31.60;;;;;;5032245;28;20354;-77
2022/07/18 13:56:42;;;;;;;;;;;41.10;30.80;;;;;;5044607;28;20300;-77
2022/07/18 13:59:08;;;;;;;;;;;41.20;29.30;;;;;;5031922;28;19909;-77
2022/07/18 14:01:33;;;;;;;;;;;40.70;31.40;;;;;;5032656;28;19913;-78
2022/07/18 14:03:59;;;;;;;;;;;41.10;29.70;;;;;;5033887;28;20328;-78
2022/07/18 14:06:24;;;;;;;;;;;40.30;28.30;;;;;;5051197;28;19940;-78
2022/07/18 14:08:50;;;;;;;;;;;40.20;31.00;;;;;;5050842;28;19909;-75
2022/07/18 14:11:15;;;;;;;;;;;39.60;30.20;;;;;;5024846;28;19924;-77
2022/07/18 14:13:41;;;;;;;;;;;40.30;32.30;;;;;;5031587;28;20196;-76
2022/07/18 14:16:07;;;;;;;;;;;40.20;29.10;;;;;;5022747;28;19967;-77